Airfield :
LOGIN :

Register | Disclaimer

   EN    FR    IT 

 










Legend :    VFR   Marginal VFR   IFR   Intensive IFR   Very Intensive IFR
Visi :
Ceiling :
>= 8 km
>= 3000ft
5 to 8 km
1000 to 3000 ft
1500m to 5 km
500 to 1000 ft
800 to 1500m
200 to 500 ft
< 800m
< 200 ft
Symbols :   Thunderstorms  Fog  Heavy snow  Heavy precipitations  Wind > 20 kt
SIGMETs :     Misc.  Thunderstorms  Icing  Turbulence  Mountain Waves  Volcanic Ashes







- Airport Elevation : 238 ft
- IATA code : FAB
- Download approach charts


EGLF - Farnborough

CURRENT METAR :
  • 251120Z AUTO 34013KT 300V010 9999 SCT041/// 10/01 Q1032

EXPIRED METARs :
  • 251050Z AUTO 35012KT 310V020 9999 FEW039 10/01 Q1032
  • 251020Z AUTO 36013KT 9999 NCD 10/01 Q1032
  • 250950Z AUTO 35011KT 320V020 9999 FEW035/// 10/01 Q1032
  • 250920Z AUTO 35013KT 320V020 9999 NCD 09/01 Q1032
  • 250850Z AUTO 33012KT 300V010 9999 NCD 08/02 Q1032

TAF TAF EGLF
Valid from the 25 at 09:00 until the 25 at 18:00 UTC


250757Z 2509/2518 36012KT 9999 FEW045
ATIS : +44 09063 800 400 (*282)
No reported NOTAMs for that airfield.



MET'MAP, your aeronautical weather chart ! - Copyright ORBIFLY December 2007 - Disclaimer

ORBIFLY MET'MAP TEAM :

Programming & Development : Alexandra Zaïnal
Concept & Development : Baudouin d'Aumeries
Co-Development & Prog : Marc-Olivier Méhu
Technical & hardware support : Manuel Goepfert

Contact : metmap@orbifly.com




SOURCES & CREDITS :

   NOAA